sensor_id;sensor_type;location;lat;lon;timestamp;P1;durP1;ratioP1;P2;durP2;ratioP2
40284;SDS011;25997;50.214;19.354;2023-12-04T00:02:29;29.55;;;19.10;;
40284;SDS011;25997;50.214;19.354;2023-12-04T00:05:33;30.48;;;19.13;;
40284;SDS011;25997;50.214;19.354;2023-12-04T00:08:36;28.08;;;17.77;;
40284;SDS011;25997;50.214;19.354;2023-12-04T00:11:39;29.77;;;17.92;;
40284;SDS011;25997;50.214;19.354;2023-12-04T00:14:41;29.88;;;18.25;;
40284;SDS011;25997;50.214;19.354;2023-12-04T00:17:44;34.35;;;19.88;;
40284;SDS011;25997;50.214;19.354;2023-12-04T00:20:47;26.63;;;17.90;;
40284;SDS011;25997;50.214;19.354;2023-12-04T00:23:50;28.15;;;18.20;;
40284;SDS011;25997;50.214;19.354;2023-12-04T00:26:53;31.85;;;20.20;;
40284;SDS011;25997;50.214;19.354;2023-12-04T00:29:55;25.73;;;17.35;;
40284;SDS011;25997;50.214;19.354;2023-12-04T00:32:58;27.25;;;17.42;;
40284;SDS011;25997;50.214;19.354;2023-12-04T00:36:02;28.80;;;18.73;;
40284;SDS011;25997;50.214;19.354;2023-12-04T00:39:05;32.58;;;18.83;;
40284;SDS011;25997;50.214;19.354;2023-12-04T00:42:08;31.05;;;18.67;;
40284;SDS011;25997;50.214;19.354;2023-12-04T00:45:10;28.42;;;18.85;;
40284;SDS011;25997;50.214;19.354;2023-12-04T00:48:13;28.02;;;19.33;;
40284;SDS011;25997;50.214;19.354;2023-12-04T00:51:17;28.98;;;19.60;;
40284;SDS011;25997;50.214;19.354;2023-12-04T00:54:19;26.92;;;19.42;;
40284;SDS011;25997;50.214;19.354;2023-12-04T00:57:22;28.55;;;17.65;;
40284;SDS011;25997;50.214;19.354;2023-12-04T01:00:24;27.30;;;17.33;;
40284;SDS011;25997;50.214;19.354;2023-12-04T01:03:27;27.90;;;18.88;;
40284;SDS011;25997;50.214;19.354;2023-12-04T01:06:35;26.60;;;17.23;;
40284;SDS011;25997;50.214;19.354;2023-12-04T01:09:38;25.63;;;17.27;;
40284;SDS011;25997;50.214;19.354;2023-12-04T01:12:40;30.45;;;17.08;;
40284;SDS011;25997;50.214;19.354;2023-12-04T01:15:43;25.10;;;16.83;;
40284;SDS011;25997;50.214;19.354;2023-12-04T01:18:47;29.60;;;18.10;;
40284;SDS011;25997;50.214;19.354;2023-12-04T01:21:51;25.33;;;18.02;;
40284;SDS011;25997;50.214;19.354;2023-12-04T01:24:54;25.88;;;18.50;;
40284;SDS011;25997;50.214;19.354;2023-12-04T01:27:56;31.35;;;18.17;;
40284;SDS011;25997;50.214;19.354;2023-12-04T01:30:59;30.95;;;23.58;;
40284;SDS011;25997;50.214;19.354;2023-12-04T01:34:01;24.13;;;16.38;;
40284;SDS011;25997;50.214;19.354;2023-12-04T01:37:05;25.83;;;16.00;;
40284;SDS011;25997;50.214;19.354;2023-12-04T01:40:08;27.58;;;17.30;;
40284;SDS011;25997;50.214;19.354;2023-12-04T01:43:11;27.00;;;18.15;;
40284;SDS011;25997;50.214;19.354;2023-12-04T01:46:14;24.13;;;16.70;;
40284;SDS011;25997;50.214;19.354;2023-12-04T01:49:19;33.40;;;26.15;;
40284;SDS011;25997;50.214;19.354;2023-12-04T01:52:23;25.23;;;17.55;;
40284;SDS011;25997;50.214;19.354;2023-12-04T01:55:25;27.83;;;19.58;;
40284;SDS011;25997;50.214;19.354;2023-12-04T01:58:29;28.17;;;17.25;;
40284;SDS011;25997;50.214;19.354;2023-12-04T02:01:32;28.42;;;19.25;;
40284;SDS011;25997;50.214;19.354;2023-12-04T02:04:35;28.35;;;19.02;;
40284;SDS011;25997;50.214;19.354;2023-12-04T02:07:39;27.75;;;18.98;;
40284;SDS011;25997;50.214;19.354;2023-12-04T02:10:43;25.20;;;17.77;;
40284;SDS011;25997;50.214;19.354;2023-12-04T02:13:46;26.77;;;18.27;;
40284;SDS011;25997;50.214;19.354;2023-12-04T02:16:48;26.45;;;17.05;;
40284;SDS011;25997;50.214;19.354;2023-12-04T02:19:54;26.33;;;17.08;;
40284;SDS011;25997;50.214;19.354;2023-12-04T02:22:59;28.58;;;18.42;;
40284;SDS011;25997;50.214;19.354;2023-12-04T02:26:05;25.92;;;17.90;;
40284;SDS011;25997;50.214;19.354;2023-12-04T02:29:14;25.60;;;18.00;;
40284;SDS011;25997;50.214;19.354;2023-12-04T02:32:20;24.52;;;17.77;;
40284;SDS011;25997;50.214;19.354;2023-12-04T02:35:26;24.77;;;16.20;;
40284;SDS011;25997;50.214;19.354;2023-12-04T02:38:31;24.63;;;16.85;;
40284;SDS011;25997;50.214;19.354;2023-12-04T02:41:36;30.83;;;16.27;;
40284;SDS011;25997;50.214;19.354;2023-12-04T02:44:38;23.00;;;16.25;;
40284;SDS011;25997;50.214;19.354;2023-12-04T02:47:41;23.35;;;14.93;;
40284;SDS011;25997;50.214;19.354;2023-12-04T02:50:43;23.77;;;15.73;;
40284;SDS011;25997;50.214;19.354;2023-12-04T02:53:46;23.60;;;16.25;;
40284;SDS011;25997;50.214;19.354;2023-12-04T02:56:50;25.40;;;17.00;;
40284;SDS011;25997;50.214;19.354;2023-12-04T02:59:53;23.02;;;16.92;;
40284;SDS011;25997;50.214;19.354;2023-12-04T03:02:55;25.00;;;16.75;;
40284;SDS011;25997;50.214;19.354;2023-12-04T03:05:58;22.58;;;16.83;;
40284;SDS011;25997;50.214;19.354;2023-12-04T03:09:00;55.47;;;27.17;;
40284;SDS011;25997;50.214;19.354;2023-12-04T03:12:05;29.77;;;22.10;;
40284;SDS011;25997;50.214;19.354;2023-12-04T03:15:07;23.48;;;16.20;;
40284;SDS011;25997;50.214;19.354;2023-12-04T03:18:12;24.77;;;17.45;;
40284;SDS011;25997;50.214;19.354;2023-12-04T03:21:14;23.83;;;17.17;;
40284;SDS011;25997;50.214;19.354;2023-12-04T03:24:17;24.73;;;16.90;;
40284;SDS011;25997;50.214;19.354;2023-12-04T03:27:21;26.40;;;17.85;;
40284;SDS011;25997;50.214;19.354;2023-12-04T03:30:23;25.85;;;17.40;;
40284;SDS011;25997;50.214;19.354;2023-12-04T03:33:26;32.97;;;24.33;;
40284;SDS011;25997;50.214;19.354;2023-12-04T03:36:28;103.40;;;60.85;;
40284;SDS011;25997;50.214;19.354;2023-12-04T03:39:31;60.60;;;36.55;;
40284;SDS011;25997;50.214;19.354;2023-12-04T03:42:35;160.02;;;91.60;;
40284;SDS011;25997;50.214;19.354;2023-12-04T03:45:37;121.60;;;75.97;;
40284;SDS011;25997;50.214;19.354;2023-12-04T03:48:40;100.03;;;60.65;;
40284;SDS011;25997;50.214;19.354;2023-12-04T03:51:42;102.85;;;62.40;;
40284;SDS011;25997;50.214;19.354;2023-12-04T03:54:45;67.15;;;44.30;;
40284;SDS011;25997;50.214;19.354;2023-12-04T03:57:49;62.70;;;37.15;;
40284;SDS011;25997;50.214;19.354;2023-12-04T04:00:51;41.45;;;26.27;;
40284;SDS011;25997;50.214;19.354;2023-12-04T04:03:54;63.58;;;38.08;;
40284;SDS011;25997;50.214;19.354;2023-12-04T04:06:57;78.75;;;48.92;;
40284;SDS011;25997;50.214;19.354;2023-12-04T04:09:59;106.47;;;61.13;;
40284;SDS011;25997;50.214;19.354;2023-12-04T04:13:04;98.93;;;61.13;;
40284;SDS011;25997;50.214;19.354;2023-12-04T04:16:07;136.90;;;93.78;;
40284;SDS011;25997;50.214;19.354;2023-12-04T04:19:14;96.00;;;72.43;;
40284;SDS011;25997;50.214;19.354;2023-12-04T04:22:17;121.22;;;89.25;;
40284;SDS011;25997;50.214;19.354;2023-12-04T04:25:19;88.75;;;64.82;;
40284;SDS011;25997;50.214;19.354;2023-12-04T04:28:26;46.10;;;31.58;;
40284;SDS011;25997;50.214;19.354;2023-12-04T04:31:28;35.13;;;25.40;;
40284;SDS011;25997;50.214;19.354;2023-12-04T04:34:30;31.65;;;22.45;;
40284;SDS011;25997;50.214;19.354;2023-12-04T04:37:33;56.03;;;35.35;;
40284;SDS011;25997;50.214;19.354;2023-12-04T04:40:36;63.17;;;42.72;;
40284;SDS011;25997;50.214;19.354;2023-12-04T04:43:44;77.78;;;53.38;;
40284;SDS011;25997;50.214;19.354;2023-12-04T04:46:46;72.38;;;47.65;;
40284;SDS011;25997;50.214;19.354;2023-12-04T04:49:49;36.55;;;24.48;;
40284;SDS011;25997;50.214;19.354;2023-12-04T04:52:51;33.03;;;21.90;;
40284;SDS011;25997;50.214;19.354;2023-12-04T04:55:54;42.90;;;27.65;;
40284;SDS011;25997;50.214;19.354;2023-12-04T04:58:58;30.35;;;21.55;;
40284;SDS011;25997;50.214;19.354;2023-12-04T05:02:00;41.38;;;27.98;;
40284;SDS011;25997;50.214;19.354;2023-12-04T05:05:03;53.17;;;33.20;;
40284;SDS011;25997;50.214;19.354;2023-12-04T05:08:06;59.42;;;41.00;;
40284;SDS011;25997;50.214;19.354;2023-12-04T05:11:08;49.05;;;35.05;;
40284;SDS011;25997;50.214;19.354;2023-12-04T05:14:12;55.10;;;44.03;;
40284;SDS011;25997;50.214;19.354;2023-12-04T05:17:15;54.33;;;40.85;;
40284;SDS011;25997;50.214;19.354;2023-12-04T05:20:17;56.45;;;38.47;;
40284;SDS011;25997;50.214;19.354;2023-12-04T05:23:20;71.93;;;48.92;;
40284;SDS011;25997;50.214;19.354;2023-12-04T05:26:22;35.97;;;26.85;;
40284;SDS011;25997;50.214;19.354;2023-12-04T05:29:26;35.60;;;23.70;;
40284;SDS011;25997;50.214;19.354;2023-12-04T05:32:29;33.45;;;21.33;;
40284;SDS011;25997;50.214;19.354;2023-12-04T05:35:31;63.67;;;38.13;;
40284;SDS011;25997;50.214;19.354;2023-12-04T05:38:35;48.55;;;35.63;;
40284;SDS011;25997;50.214;19.354;2023-12-04T05:41:38;33.80;;;23.55;;
40284;SDS011;25997;50.214;19.354;2023-12-04T05:44:42;36.50;;;27.45;;
40284;SDS011;25997;50.214;19.354;2023-12-04T05:47:44;40.70;;;30.10;;
40284;SDS011;25997;50.214;19.354;2023-12-04T05:50:47;29.73;;;23.30;;
40284;SDS011;25997;50.214;19.354;2023-12-04T05:53:49;36.40;;;27.88;;
40284;SDS011;25997;50.214;19.354;2023-12-04T05:56:52;39.40;;;28.92;;
40284;SDS011;25997;50.214;19.354;2023-12-04T05:59:56;42.95;;;33.88;;
40284;SDS011;25997;50.214;19.354;2023-12-04T06:02:58;35.13;;;26.77;;
40284;SDS011;25997;50.214;19.354;2023-12-04T06:06:01;32.08;;;20.73;;
40284;SDS011;25997;50.214;19.354;2023-12-04T06:09:04;33.42;;;20.73;;
40284;SDS011;25997;50.214;19.354;2023-12-04T06:12:07;44.53;;;28.85;;
40284;SDS011;25997;50.214;19.354;2023-12-04T06:15:12;46.70;;;28.85;;
40284;SDS011;25997;50.214;19.354;2023-12-04T06:18:14;50.42;;;32.60;;
40284;SDS011;25997;50.214;19.354;2023-12-04T06:21:17;55.92;;;35.38;;
40284;SDS011;25997;50.214;19.354;2023-12-04T06:24:20;55.67;;;39.00;;
40284;SDS011;25997;50.214;19.354;2023-12-04T06:27:23;48.28;;;37.55;;
40284;SDS011;25997;50.214;19.354;2023-12-04T06:30:28;44.00;;;31.02;;
40284;SDS011;25997;50.214;19.354;2023-12-04T06:33:31;30.00;;;22.83;;
40284;SDS011;25997;50.214;19.354;2023-12-04T06:36:35;26.45;;;19.20;;
40284;SDS011;25997;50.214;19.354;2023-12-04T06:39:41;25.35;;;18.25;;
40284;SDS011;25997;50.214;19.354;2023-12-04T06:42:47;26.33;;;18.58;;
40284;SDS011;25997;50.214;19.354;2023-12-04T06:45:51;25.63;;;18.75;;
40284;SDS011;25997;50.214;19.354;2023-12-04T06:48:57;28.65;;;21.10;;
40284;SDS011;25997;50.214;19.354;2023-12-04T06:52:01;29.23;;;20.42;;
40284;SDS011;25997;50.214;19.354;2023-12-04T06:55:05;44.78;;;32.88;;
40284;SDS011;25997;50.214;19.354;2023-12-04T06:58:08;42.45;;;28.90;;
40284;SDS011;25997;50.214;19.354;2023-12-04T07:01:12;65.07;;;41.58;;
40284;SDS011;25997;50.214;19.354;2023-12-04T07:04:15;58.75;;;38.67;;
40284;SDS011;25997;50.214;19.354;2023-12-04T07:07:21;79.53;;;47.45;;
40284;SDS011;25997;50.214;19.354;2023-12-04T07:10:24;100.38;;;55.33;;
40284;SDS011;25997;50.214;19.354;2023-12-04T07:13:26;47.97;;;33.08;;
40284;SDS011;25997;50.214;19.354;2023-12-04T07:16:30;31.23;;;26.88;;
40284;SDS011;25997;50.214;19.354;2023-12-04T07:19:40;29.15;;;22.50;;
40284;SDS011;25997;50.214;19.354;2023-12-04T07:22:43;29.25;;;21.60;;
40284;SDS011;25997;50.214;19.354;2023-12-04T07:25:46;22.67;;;18.23;;
40284;SDS011;25997;50.214;19.354;2023-12-04T07:28:48;30.25;;;21.67;;
40284;SDS011;25997;50.214;19.354;2023-12-04T07:31:52;36.75;;;26.92;;
40284;SDS011;25997;50.214;19.354;2023-12-04T07:34:55;38.78;;;27.40;;
40284;SDS011;25997;50.214;19.354;2023-12-04T07:37:59;67.75;;;50.33;;
40284;SDS011;25997;50.214;19.354;2023-12-04T07:41:02;44.30;;;34.67;;
40284;SDS011;25997;50.214;19.354;2023-12-04T07:44:08;47.03;;;34.72;;
40284;SDS011;25997;50.214;19.354;2023-12-04T07:47:12;40.80;;;28.73;;
40284;SDS011;25997;50.214;19.354;2023-12-04T07:50:16;30.17;;;22.95;;
40284;SDS011;25997;50.214;19.354;2023-12-04T07:53:18;81.10;;;47.33;;
40284;SDS011;25997;50.214;19.354;2023-12-04T07:56:21;74.07;;;48.05;;
40284;SDS011;25997;50.214;19.354;2023-12-04T07:59:24;46.70;;;32.05;;
40284;SDS011;25997;50.214;19.354;2023-12-04T08:02:28;32.65;;;24.58;;
40284;SDS011;25997;50.214;19.354;2023-12-04T08:05:31;27.45;;;21.38;;
40284;SDS011;25997;50.214;19.354;2023-12-04T08:08:34;29.52;;;22.70;;
40284;SDS011;25997;50.214;19.354;2023-12-04T08:11:36;25.92;;;20.80;;
40284;SDS011;25997;50.214;19.354;2023-12-04T08:14:39;27.50;;;21.73;;
40284;SDS011;25997;50.214;19.354;2023-12-04T08:17:43;28.98;;;18.98;;
40284;SDS011;25997;50.214;19.354;2023-12-04T08:20:46;28.65;;;21.48;;
40284;SDS011;25997;50.214;19.354;2023-12-04T08:23:48;27.40;;;20.75;;
40284;SDS011;25997;50.214;19.354;2023-12-04T08:26:51;29.38;;;20.70;;
40284;SDS011;25997;50.214;19.354;2023-12-04T08:29:53;25.23;;;19.08;;
40284;SDS011;25997;50.214;19.354;2023-12-04T08:32:57;29.33;;;20.67;;
40284;SDS011;25997;50.214;19.354;2023-12-04T08:36:00;26.33;;;19.42;;
40284;SDS011;25997;50.214;19.354;2023-12-04T08:39:03;24.50;;;17.88;;
40284;SDS011;25997;50.214;19.354;2023-12-04T08:42:05;26.38;;;18.00;;
40284;SDS011;25997;50.214;19.354;2023-12-04T08:45:09;20.75;;;15.73;;
40284;SDS011;25997;50.214;19.354;2023-12-04T08:48:13;24.92;;;17.80;;
40284;SDS011;25997;50.214;19.354;2023-12-04T08:51:16;24.13;;;18.20;;
40284;SDS011;25997;50.214;19.354;2023-12-04T08:54:18;26.48;;;19.23;;
40284;SDS011;25997;50.214;19.354;2023-12-04T08:57:21;23.45;;;17.67;;
40284;SDS011;25997;50.214;19.354;2023-12-04T09:00:24;29.38;;;19.65;;
40284;SDS011;25997;50.214;19.354;2023-12-04T09:03:28;24.92;;;19.13;;
40284;SDS011;25997;50.214;19.354;2023-12-04T09:06:32;25.00;;;19.63;;
40284;SDS011;25997;50.214;19.354;2023-12-04T09:09:34;27.45;;;22.00;;
40284;SDS011;25997;50.214;19.354;2023-12-04T09:12:37;29.35;;;21.58;;
40284;SDS011;25997;50.214;19.354;2023-12-04T09:15:39;28.02;;;20.73;;
40284;SDS011;25997;50.214;19.354;2023-12-04T09:18:44;29.42;;;20.42;;
40284;SDS011;25997;50.214;19.354;2023-12-04T09:21:47;23.60;;;18.58;;
40284;SDS011;25997;50.214;19.354;2023-12-04T09:24:50;26.63;;;19.35;;
40284;SDS011;25997;50.214;19.354;2023-12-04T09:27:52;26.17;;;18.90;;
40284;SDS011;25997;50.214;19.354;2023-12-04T09:30:55;33.35;;;22.27;;
40284;SDS011;25997;50.214;19.354;2023-12-04T09:33:59;33.80;;;22.80;;
40284;SDS011;25997;50.214;19.354;2023-12-04T09:37:02;33.30;;;26.13;;
40284;SDS011;25997;50.214;19.354;2023-12-04T09:40:05;32.90;;;24.67;;
40284;SDS011;25997;50.214;19.354;2023-12-04T09:43:08;36.88;;;26.13;;
40284;SDS011;25997;50.214;19.354;2023-12-04T09:46:11;31.25;;;21.75;;
40284;SDS011;25997;50.214;19.354;2023-12-04T09:49:16;26.63;;;21.17;;
40284;SDS011;25997;50.214;19.354;2023-12-04T09:52:19;21.75;;;17.95;;
40284;SDS011;25997;50.214;19.354;2023-12-04T09:55:22;21.95;;;16.60;;
40284;SDS011;25997;50.214;19.354;2023-12-04T09:58:24;24.77;;;18.85;;
40284;SDS011;25997;50.214;19.354;2023-12-04T10:01:30;21.70;;;16.65;;
40284;SDS011;25997;50.214;19.354;2023-12-04T10:04:37;19.52;;;15.23;;
40284;SDS011;25997;50.214;19.354;2023-12-04T10:07:40;18.60;;;15.20;;
40284;SDS011;25997;50.214;19.354;2023-12-04T10:10:43;22.35;;;15.55;;
40284;SDS011;25997;50.214;19.354;2023-12-04T10:13:45;20.52;;;13.93;;
40284;SDS011;25997;50.214;19.354;2023-12-04T10:16:48;20.15;;;14.88;;
40284;SDS011;25997;50.214;19.354;2023-12-04T10:19:54;18.63;;;14.73;;
40284;SDS011;25997;50.214;19.354;2023-12-04T10:26:14;20.00;;;13.75;;
40284;SDS011;25997;50.214;19.354;2023-12-04T10:29:17;19.65;;;14.07;;
40284;SDS011;25997;50.214;19.354;2023-12-04T10:32:19;24.48;;;17.05;;
40284;SDS011;25997;50.214;19.354;2023-12-04T10:35:24;24.83;;;17.02;;
40284;SDS011;25997;50.214;19.354;2023-12-04T10:38:26;26.05;;;16.67;;
40284;SDS011;25997;50.214;19.354;2023-12-04T10:41:29;23.20;;;15.25;;
40284;SDS011;25997;50.214;19.354;2023-12-04T10:44:32;32.13;;;20.05;;
40284;SDS011;25997;50.214;19.354;2023-12-04T10:47:34;31.08;;;19.67;;
40284;SDS011;25997;50.214;19.354;2023-12-04T10:50:40;31.52;;;21.40;;
40284;SDS011;25997;50.214;19.354;2023-12-04T10:53:44;18.88;;;14.27;;
40284;SDS011;25997;50.214;19.354;2023-12-04T10:56:46;25.70;;;18.92;;
40284;SDS011;25997;50.214;19.354;2023-12-04T10:59:52;20.25;;;14.55;;
40284;SDS011;25997;50.214;19.354;2023-12-04T11:02:58;22.13;;;15.77;;
40284;SDS011;25997;50.214;19.354;2023-12-04T11:06:09;24.20;;;17.00;;
40284;SDS011;25997;50.214;19.354;2023-12-04T11:09:14;16.42;;;12.73;;
40284;SDS011;25997;50.214;19.354;2023-12-04T11:12:20;18.80;;;14.10;;
40284;SDS011;25997;50.214;19.354;2023-12-04T11:15:28;21.27;;;15.27;;
40284;SDS011;25997;50.214;19.354;2023-12-04T11:18:35;16.80;;;13.95;;
40284;SDS011;25997;50.214;19.354;2023-12-04T11:21:42;18.63;;;14.38;;
40284;SDS011;25997;50.214;19.354;2023-12-04T11:24:47;18.73;;;15.43;;
40284;SDS011;25997;50.214;19.354;2023-12-04T11:27:50;18.30;;;15.18;;
40284;SDS011;25997;50.214;19.354;2023-12-04T11:30:54;20.88;;;15.45;;
40284;SDS011;25997;50.214;19.354;2023-12-04T11:34:01;21.60;;;14.60;;
40284;SDS011;25997;50.214;19.354;2023-12-04T11:37:06;17.85;;;12.57;;
40284;SDS011;25997;50.214;19.354;2023-12-04T11:40:11;17.52;;;13.68;;
40284;SDS011;25997;50.214;19.354;2023-12-04T11:43:21;26.80;;;17.08;;
40284;SDS011;25997;50.214;19.354;2023-12-04T11:46:24;20.75;;;15.23;;
40284;SDS011;25997;50.214;19.354;2023-12-04T11:49:28;23.08;;;16.75;;
40284;SDS011;25997;50.214;19.354;2023-12-04T11:52:33;18.42;;;14.13;;
40284;SDS011;25997;50.214;19.354;2023-12-04T11:55:36;21.50;;;14.43;;
40284;SDS011;25997;50.214;19.354;2023-12-04T11:58:42;25.90;;;19.08;;
40284;SDS011;25997;50.214;19.354;2023-12-04T12:01:45;18.17;;;13.65;;
40284;SDS011;25997;50.214;19.354;2023-12-04T12:04:53;16.60;;;12.85;;
40284;SDS011;25997;50.214;19.354;2023-12-04T12:07:58;17.65;;;12.02;;
40284;SDS011;25997;50.214;19.354;2023-12-04T12:11:03;16.63;;;11.88;;
40284;SDS011;25997;50.214;19.354;2023-12-04T12:14:06;16.10;;;13.38;;
40284;SDS011;25997;50.214;19.354;2023-12-04T12:17:09;14.25;;;11.45;;
40284;SDS011;25997;50.214;19.354;2023-12-04T12:20:12;14.23;;;11.27;;
40284;SDS011;25997;50.214;19.354;2023-12-04T12:23:17;17.83;;;13.13;;
40284;SDS011;25997;50.214;19.354;2023-12-04T12:26:21;21.60;;;14.48;;
40284;SDS011;25997;50.214;19.354;2023-12-04T12:29:24;22.33;;;17.02;;
40284;SDS011;25997;50.214;19.354;2023-12-04T12:32:26;24.33;;;17.77;;
40284;SDS011;25997;50.214;19.354;2023-12-04T12:35:29;18.55;;;15.02;;
40284;SDS011;25997;50.214;19.354;2023-12-04T12:38:34;17.00;;;12.60;;
40284;SDS011;25997;50.214;19.354;2023-12-04T12:41:36;19.23;;;13.75;;
40284;SDS011;25997;50.214;19.354;2023-12-04T12:44:39;19.17;;;13.20;;
40284;SDS011;25997;50.214;19.354;2023-12-04T12:47:43;17.92;;;13.30;;
40284;SDS011;25997;50.214;19.354;2023-12-04T12:50:46;17.73;;;13.07;;
40284;SDS011;25997;50.214;19.354;2023-12-04T12:53:51;18.92;;;12.05;;
40284;SDS011;25997;50.214;19.354;2023-12-04T12:56:54;19.77;;;12.90;;
40284;SDS011;25997;50.214;19.354;2023-12-04T12:59:56;20.55;;;14.65;;
40284;SDS011;25997;50.214;19.354;2023-12-04T13:02:59;18.90;;;14.70;;
40284;SDS011;25997;50.214;19.354;2023-12-04T13:06:01;18.60;;;13.82;;
40284;SDS011;25997;50.214;19.354;2023-12-04T13:09:06;18.95;;;14.25;;
40284;SDS011;25997;50.214;19.354;2023-12-04T13:12:08;22.80;;;14.90;;
40284;SDS011;25997;50.214;19.354;2023-12-04T13:15:11;21.30;;;14.90;;
40284;SDS011;25997;50.214;19.354;2023-12-04T13:18:13;19.75;;;15.07;;
40284;SDS011;25997;50.214;19.354;2023-12-04T13:21:16;21.40;;;14.95;;
40284;SDS011;25997;50.214;19.354;2023-12-04T13:24:20;18.20;;;14.35;;
40284;SDS011;25997;50.214;19.354;2023-12-04T13:27:23;17.30;;;12.35;;
40284;SDS011;25997;50.214;19.354;2023-12-04T13:30:25;13.75;;;9.75;;
40284;SDS011;25997;50.214;19.354;2023-12-04T13:33:28;13.57;;;10.57;;
40284;SDS011;25997;50.214;19.354;2023-12-04T13:36:30;13.60;;;10.90;;
40284;SDS011;25997;50.214;19.354;2023-12-04T13:39:34;16.00;;;10.82;;
40284;SDS011;25997;50.214;19.354;2023-12-04T13:42:48;15.48;;;10.43;;
40284;SDS011;25997;50.214;19.354;2023-12-04T13:46:08;13.77;;;10.35;;
40284;SDS011;25997;50.214;19.354;2023-12-04T13:49:11;13.00;;;10.00;;
40284;SDS011;25997;50.214;19.354;2023-12-04T13:52:13;16.98;;;11.63;;
40284;SDS011;25997;50.214;19.354;2023-12-04T13:55:17;18.67;;;12.70;;
40284;SDS011;25997;50.214;19.354;2023-12-04T13:58:21;16.15;;;12.57;;
40284;SDS011;25997;50.214;19.354;2023-12-04T14:01:39;17.48;;;13.18;;
40284;SDS011;25997;50.214;19.354;2023-12-04T14:04:42;22.70;;;14.93;;
40284;SDS011;25997;50.214;19.354;2023-12-04T14:07:45;19.67;;;13.50;;
40284;SDS011;25997;50.214;19.354;2023-12-04T14:10:49;19.70;;;14.43;;
40284;SDS011;25997;50.214;19.354;2023-12-04T14:13:51;19.40;;;12.75;;
40284;SDS011;25997;50.214;19.354;2023-12-04T14:16:54;22.02;;;13.88;;
40284;SDS011;25997;50.214;19.354;2023-12-04T14:19:56;24.35;;;16.92;;
40284;SDS011;25997;50.214;19.354;2023-12-04T14:22:59;26.60;;;18.15;;
40284;SDS011;25997;50.214;19.354;2023-12-04T14:26:03;22.83;;;15.02;;
40284;SDS011;25997;50.214;19.354;2023-12-04T14:29:07;25.08;;;16.17;;
40284;SDS011;25997;50.214;19.354;2023-12-04T14:32:09;32.40;;;19.30;;
40284;SDS011;25997;50.214;19.354;2023-12-04T14:35:13;30.80;;;18.30;;
40284;SDS011;25997;50.214;19.354;2023-12-04T14:38:16;40.28;;;22.48;;
40284;SDS011;25997;50.214;19.354;2023-12-04T14:41:20;45.47;;;27.63;;
40284;SDS011;25997;50.214;19.354;2023-12-04T14:44:23;36.80;;;23.83;;
40284;SDS011;25997;50.214;19.354;2023-12-04T14:47:25;43.03;;;25.60;;
40284;SDS011;25997;50.214;19.354;2023-12-04T14:50:28;39.75;;;23.35;;
40284;SDS011;25997;50.214;19.354;2023-12-04T14:53:31;37.88;;;21.80;;
40284;SDS011;25997;50.214;19.354;2023-12-04T14:56:45;30.85;;;18.77;;
40284;SDS011;25997;50.214;19.354;2023-12-04T15:00:02;32.50;;;19.95;;
40284;SDS011;25997;50.214;19.354;2023-12-04T15:03:22;28.67;;;18.00;;
40284;SDS011;25997;50.214;19.354;2023-12-04T15:06:47;29.83;;;18.80;;
40284;SDS011;25997;50.214;19.354;2023-12-04T15:10:04;27.67;;;18.38;;
40284;SDS011;25997;50.214;19.354;2023-12-04T15:13:25;32.97;;;21.48;;
40284;SDS011;25997;50.214;19.354;2023-12-04T15:16:55;30.00;;;17.67;;
40284;SDS011;25997;50.214;19.354;2023-12-04T15:20:13;26.75;;;17.38;;
40284;SDS011;25997;50.214;19.354;2023-12-04T15:23:33;27.63;;;15.73;;
40284;SDS011;25997;50.214;19.354;2023-12-04T15:26:36;31.33;;;16.65;;
40284;SDS011;25997;50.214;19.354;2023-12-04T15:29:39;28.13;;;16.83;;
40284;SDS011;25997;50.214;19.354;2023-12-04T15:32:41;24.98;;;14.35;;
40284;SDS011;25997;50.214;19.354;2023-12-04T15:35:43;23.17;;;14.63;;
40284;SDS011;25997;50.214;19.354;2023-12-04T15:38:45;26.00;;;15.68;;
40284;SDS011;25997;50.214;19.354;2023-12-04T15:41:48;26.08;;;16.85;;
40284;SDS011;25997;50.214;19.354;2023-12-04T15:44:52;25.33;;;16.02;;
40284;SDS011;25997;50.214;19.354;2023-12-04T15:47:54;19.10;;;12.93;;
40284;SDS011;25997;50.214;19.354;2023-12-04T15:50:56;18.48;;;12.13;;
40284;SDS011;25997;50.214;19.354;2023-12-04T15:53:58;18.63;;;12.68;;
40284;SDS011;25997;50.214;19.354;2023-12-04T15:57:01;17.60;;;11.57;;
40284;SDS011;25997;50.214;19.354;2023-12-04T16:00:04;19.10;;;12.70;;
40284;SDS011;25997;50.214;19.354;2023-12-04T16:03:12;19.92;;;12.95;;
40284;SDS011;25997;50.214;19.354;2023-12-04T16:06:15;26.88;;;13.98;;
40284;SDS011;25997;50.214;19.354;2023-12-04T16:09:18;26.27;;;15.90;;
40284;SDS011;25997;50.214;19.354;2023-12-04T16:12:20;40.05;;;22.73;;
40284;SDS011;25997;50.214;19.354;2023-12-04T16:15:24;39.08;;;21.08;;
40284;SDS011;25997;50.214;19.354;2023-12-04T16:18:27;33.88;;;18.77;;
40284;SDS011;25997;50.214;19.354;2023-12-04T16:21:29;29.77;;;17.80;;
40284;SDS011;25997;50.214;19.354;2023-12-04T16:24:32;34.10;;;18.35;;
40284;SDS011;25997;50.214;19.354;2023-12-04T16:27:35;28.33;;;16.75;;
40284;SDS011;25997;50.214;19.354;2023-12-04T16:30:40;38.97;;;20.77;;
40284;SDS011;25997;50.214;19.354;2023-12-04T16:33:43;28.90;;;18.77;;
40284;SDS011;25997;50.214;19.354;2023-12-04T16:36:45;33.75;;;17.23;;
40284;SDS011;25997;50.214;19.354;2023-12-04T16:39:48;26.10;;;16.98;;
40284;SDS011;25997;50.214;19.354;2023-12-04T16:42:50;30.45;;;19.02;;
40284;SDS011;25997;50.214;19.354;2023-12-04T16:45:54;24.40;;;16.13;;
40284;SDS011;25997;50.214;19.354;2023-12-04T16:48:58;28.67;;;16.95;;
40284;SDS011;25997;50.214;19.354;2023-12-04T16:52:01;27.48;;;14.75;;
40284;SDS011;25997;50.214;19.354;2023-12-04T16:55:03;20.60;;;14.23;;
40284;SDS011;25997;50.214;19.354;2023-12-04T16:58:08;21.27;;;13.10;;
40284;SDS011;25997;50.214;19.354;2023-12-04T17:01:12;21.35;;;13.80;;
40284;SDS011;25997;50.214;19.354;2023-12-04T17:04:15;23.25;;;15.05;;
40284;SDS011;25997;50.214;19.354;2023-12-04T17:07:17;21.40;;;14.40;;
40284;SDS011;25997;50.214;19.354;2023-12-04T17:10:20;21.75;;;13.23;;
40284;SDS011;25997;50.214;19.354;2023-12-04T17:13:23;20.08;;;11.73;;
40284;SDS011;25997;50.214;19.354;2023-12-04T17:16:27;17.17;;;11.95;;
40284;SDS011;25997;50.214;19.354;2023-12-04T17:19:30;18.27;;;11.82;;
40284;SDS011;25997;50.214;19.354;2023-12-04T17:22:33;18.38;;;12.50;;
40284;SDS011;25997;50.214;19.354;2023-12-04T17:25:35;23.30;;;14.70;;
40284;SDS011;25997;50.214;19.354;2023-12-04T17:28:38;19.33;;;12.43;;
40284;SDS011;25997;50.214;19.354;2023-12-04T17:31:42;22.80;;;13.02;;
40284;SDS011;25997;50.214;19.354;2023-12-04T17:34:45;26.85;;;15.50;;
40284;SDS011;25997;50.214;19.354;2023-12-04T17:37:47;23.23;;;15.30;;
40284;SDS011;25997;50.214;19.354;2023-12-04T17:40:50;27.05;;;16.92;;
40284;SDS011;25997;50.214;19.354;2023-12-04T17:43:53;29.55;;;16.75;;